createdAt,value
2018-03-26T00:01:30.188Z,16.17
2018-03-26T00:06:21.068Z,16.63
2018-03-26T00:11:11.958Z,15.77
2018-03-26T00:16:03.595Z,14.10
2018-03-26T00:20:55.242Z,16.50
2018-03-26T00:25:46.894Z,15.33
2018-03-26T00:30:38.525Z,16.07
2018-03-26T00:35:30.150Z,17.33
2018-03-26T00:40:21.042Z,16.60
2018-03-26T00:45:11.942Z,18.20
2018-03-26T00:50:02.831Z,15.83
2018-03-26T00:54:54.466Z,17.53
2018-03-26T00:59:45.353Z,17.17
2018-03-26T01:04:36.254Z,19.50
2018-03-26T01:09:27.882Z,15.67
2018-03-26T01:14:18.778Z,17.57
2018-03-26T01:19:09.695Z,18.80
2018-03-26T01:24:00.646Z,15.77
2018-03-26T01:28:51.552Z,17.77
2018-03-26T01:33:42.446Z,16.37
2018-03-26T01:38:33.328Z,16.40
2018-03-26T01:43:24.205Z,16.80
2018-03-26T01:48:15.090Z,18.67
2018-03-26T01:53:06.721Z,18.93
2018-03-26T01:57:57.600Z,18.30
2018-03-26T02:02:48.494Z,15.67
2018-03-26T02:07:39.445Z,20.30
2018-03-26T02:12:30.365Z,16.90
2018-03-26T02:17:21.258Z,16.20
2018-03-26T02:22:12.894Z,16.60
2018-03-26T02:27:04.538Z,17.73
2018-03-26T02:31:56.167Z,19.87
2018-03-26T02:36:47.819Z,16.73
2018-03-26T02:41:39.461Z,17.47
2018-03-26T02:46:31.106Z,18.07
2018-03-26T02:51:22.006Z,16.43
2018-03-26T02:56:12.895Z,17.47
2018-03-26T03:01:03.800Z,17.50
2018-03-26T03:05:54.698Z,16.20
2018-03-26T03:10:46.334Z,18.87
2018-03-26T03:15:37.955Z,16.30
2018-03-26T03:20:28.864Z,18.47
2018-03-26T03:25:19.770Z,17.97
2018-03-26T03:30:10.657Z,16.27
2018-03-26T03:35:02.285Z,15.80
2018-03-26T03:39:53.178Z,16.80
2018-03-26T03:44:44.073Z,16.43
2018-03-26T03:49:34.966Z,17.90
2018-03-26T03:54:26.604Z,15.27
2018-03-26T03:59:17.497Z,17.80
2018-03-26T04:04:08.381Z,15.70
2018-03-26T04:08:59.273Z,16.93
2018-03-26T04:13:50.904Z,18.37
2018-03-26T04:18:41.812Z,16.30
2018-03-26T04:23:32.710Z,18.07
2018-03-26T04:28:23.617Z,17.93
2018-03-26T04:33:14.514Z,18.27
2018-03-26T04:38:06.158Z,17.13
2018-03-26T04:42:57.797Z,15.13
2018-03-26T04:47:49.430Z,17.83
2018-03-26T04:52:40.338Z,15.63
2018-03-26T04:57:31.235Z,16.80
2018-03-26T05:02:22.126Z,18.40
2018-03-26T05:07:13.757Z,16.17
2018-03-26T05:12:04.666Z,18.60
2018-03-26T05:16:55.574Z,17.43
2018-03-26T05:21:46.470Z,19.17
2018-03-26T05:26:37.366Z,16.33
2018-03-26T05:31:29.002Z,19.47
2018-03-26T05:36:20.672Z,18.70
2018-03-26T05:41:12.265Z,18.27
2018-03-26T05:46:03.149Z,19.33
2018-03-26T05:50:54.033Z,16.70
2018-03-26T05:55:44.930Z,19.63
2018-03-26T06:00:35.823Z,19.80
2018-03-26T06:05:26.723Z,17.93
2018-03-26T06:10:17.608Z,19.90
2018-03-26T06:15:08.502Z,19.07
2018-03-26T06:20:00.146Z,20.97
2018-03-26T06:24:51.804Z,18.67
2018-03-26T06:29:43.426Z,19.27
2018-03-26T06:34:34.330Z,19.27
2018-03-26T06:39:25.229Z,20.97
2018-03-26T06:44:16.201Z,20.40
2018-03-26T06:49:07.095Z,20.10
2018-03-26T06:53:57.982Z,19.13
2018-03-26T06:58:48.868Z,20.17
2018-03-26T07:03:39.761Z,17.83
2018-03-26T07:08:30.648Z,19.90
2018-03-26T07:13:22.282Z,20.47
2018-03-26T07:18:13.186Z,19.37
2018-03-26T07:23:04.077Z,21.03
2018-03-26T07:27:55.786Z,21.10
2018-03-26T07:32:46.676Z,22.80
2018-03-26T07:37:37.565Z,19.70
2018-03-26T07:42:29.225Z,19.93
2018-03-26T07:47:20.105Z,20.50
2018-03-26T07:52:11.742Z,18.70
2018-03-26T07:57:02.642Z,20.80
2018-03-26T08:01:53.534Z,21.60
2018-03-26T08:06:45.157Z,21.23
2018-03-26T08:11:36.157Z,25.67
2018-03-26T08:16:27.070Z,24.30
2018-03-26T08:21:17.956Z,21.73
2018-03-26T08:26:08.858Z,22.90
2018-03-26T08:30:59.800Z,21.40
2018-03-26T08:35:50.684Z,20.53
2018-03-26T08:40:41.601Z,21.00
2018-03-26T08:45:32.485Z,20.90
2018-03-26T08:50:24.181Z,22.20
2018-03-26T08:55:15.756Z,22.77
2018-03-26T09:00:07.406Z,20.97
2018-03-26T09:04:58.424Z,22.43
2018-03-26T09:09:49.322Z,22.93
2018-03-26T09:14:40.208Z,23.33
2018-03-26T09:19:31.250Z,22.57
2018-03-26T09:24:22.888Z,23.97
2018-03-26T09:29:13.798Z,22.73
2018-03-26T09:34:04.685Z,24.27
2018-03-26T09:38:56.341Z,21.40
2018-03-26T09:43:47.240Z,20.30
2018-03-26T09:48:38.148Z,21.67
2018-03-26T09:53:29.808Z,19.43
2018-03-26T09:58:21.430Z,22.63
2018-03-26T10:03:12.328Z,22.60
2018-03-26T10:08:03.262Z,20.07
2018-03-26T10:12:54.145Z,20.63
2018-03-26T10:17:46.584Z,20.27
2018-03-26T10:22:37.529Z,22.20
2018-03-26T10:27:28.432Z,22.57
2018-03-26T10:32:19.341Z,21.60
2018-03-26T10:37:10.239Z,24.00
2018-03-26T10:42:01.882Z,25.23
2018-03-26T10:46:52.761Z,26.10
2018-03-26T10:51:43.710Z,26.63
2018-03-26T10:56:34.605Z,24.70
2018-03-26T11:01:25.556Z,24.90
2018-03-26T11:06:16.453Z,25.23
2018-03-26T11:11:07.381Z,25.20
2018-03-26T11:15:58.280Z,25.03
2018-03-26T11:20:49.297Z,22.90
2018-03-26T11:25:40.194Z,24.03
2018-03-26T11:30:31.088Z,24.37
2018-03-26T11:35:22.054Z,25.40
2018-03-26T11:40:12.945Z,24.90
2018-03-26T11:45:03.832Z,24.00
2018-03-26T11:49:55.488Z,23.43
2018-03-26T11:54:47.130Z,23.80
2018-03-26T11:59:38.773Z,20.87
2018-03-26T12:04:29.743Z,19.10
2018-03-26T12:09:20.708Z,20.50
2018-03-26T12:14:11.639Z,20.50
2018-03-26T12:19:02.542Z,19.67
2018-03-26T12:24:05.977Z,16.80
2018-03-26T12:29:09.326Z,16.00
2018-03-26T12:34:12.946Z,16.97
2018-03-26T12:39:03.847Z,17.87
2018-03-26T12:43:54.741Z,17.77
2018-03-26T12:48:45.663Z,19.13
2018-03-26T12:53:36.557Z,19.13
2018-03-26T12:58:39.976Z,17.17
2018-03-26T13:03:31.622Z,15.80
2018-03-26T13:08:22.517Z,14.63
2018-03-26T13:13:13.486Z,14.07
2018-03-26T13:18:05.222Z,13.77
2018-03-26T13:22:56.112Z,12.50
2018-03-26T13:27:47.006Z,11.43
2018-03-26T13:32:38.794Z,11.53
2018-03-26T13:37:29.716Z,11.40
2018-03-26T13:42:20.659Z,13.30
2018-03-26T13:47:11.552Z,14.53
2018-03-26T13:52:02.503Z,10.20
2018-03-26T13:56:53.389Z,13.23
2018-03-26T14:01:45.028Z,12.40
2018-03-26T14:06:35.922Z,11.03
2018-03-26T14:11:39.184Z,11.40
2018-03-26T14:16:42.587Z,10.07
2018-03-26T14:21:33.481Z,11.37
2018-03-26T14:26:24.672Z,9.00
2018-03-26T14:31:15.562Z,8.10
2018-03-26T14:36:06.487Z,7.93
2018-03-26T14:40:58.137Z,9.40
2018-03-26T14:45:49.140Z,7.50
2018-03-26T14:50:40.033Z,6.57
2018-03-26T14:55:30.955Z,7.17
2018-03-26T15:00:21.948Z,6.77
2018-03-26T15:05:12.845Z,6.03
2018-03-26T15:10:03.775Z,7.40
2018-03-26T15:14:54.744Z,6.07
2018-03-26T15:19:45.649Z,5.93
2018-03-26T15:24:36.551Z,7.57
2018-03-26T15:29:27.554Z,6.50
2018-03-26T15:34:19.193Z,5.80
2018-03-26T15:39:10.110Z,6.70
2018-03-26T15:44:01.023Z,4.83
2018-03-26T15:48:51.917Z,4.87
2018-03-26T15:53:42.818Z,5.37
2018-03-26T15:58:34.467Z,3.87
2018-03-26T16:03:30.037Z,4.63
2018-03-26T16:08:20.917Z,4.90
2018-03-26T16:13:11.801Z,4.00
2018-03-26T16:18:02.704Z,4.80
2018-03-26T16:22:53.596Z,4.50
2018-03-26T16:27:44.495Z,4.30
2018-03-26T16:32:35.394Z,4.00
2018-03-26T16:37:26.301Z,3.53
2018-03-26T16:42:26.800Z,4.00
2018-03-26T16:47:17.693Z,4.23
2018-03-26T16:52:08.599Z,4.37
2018-03-26T16:56:59.498Z,5.30
2018-03-26T17:01:50.402Z,5.23
2018-03-26T17:06:41.313Z,6.10
2018-03-26T17:11:32.949Z,5.00
2018-03-26T17:16:23.836Z,4.70
2018-03-26T17:21:14.759Z,5.70
2018-03-26T17:26:06.397Z,6.40
2018-03-26T17:30:57.306Z,6.20
2018-03-26T17:35:48.188Z,5.97
2018-03-26T17:40:39.085Z,6.70
2018-03-26T17:45:30.027Z,5.80
2018-03-26T17:50:21.664Z,5.73
2018-03-26T17:55:13.298Z,6.47
2018-03-26T18:00:04.224Z,6.30
2018-03-26T18:04:55.135Z,6.07
2018-03-26T18:09:46.032Z,5.90
2018-03-26T18:14:36.924Z,6.53
2018-03-26T18:19:27.836Z,6.77
2018-03-26T18:24:18.717Z,6.43
2018-03-26T18:29:09.693Z,7.40
2018-03-26T18:34:07.616Z,6.30
2018-03-26T18:38:58.510Z,6.40
2018-03-26T18:43:49.492Z,6.90
2018-03-26T18:48:40.422Z,6.93
2018-03-26T18:53:31.321Z,6.60
2018-03-26T18:58:22.214Z,7.30
2018-03-26T19:03:13.121Z,6.53
2018-03-26T19:08:04.777Z,8.13
2018-03-26T19:12:55.670Z,6.97
2018-03-26T19:17:46.577Z,6.87
2018-03-26T19:22:44.617Z,6.23
2018-03-26T19:27:40.414Z,8.67
2018-03-26T19:32:40.737Z,7.90
2018-03-26T19:37:40.431Z,7.70
2018-03-26T19:42:31.376Z,6.47
2018-03-26T19:47:23.029Z,6.20
2018-03-26T19:52:13.925Z,6.60
2018-03-26T19:57:04.838Z,7.27
2018-03-26T20:01:55.784Z,6.70
2018-03-26T20:06:46.682Z,6.13
2018-03-26T20:11:38.325Z,6.63
2018-03-26T20:16:29.993Z,6.60
2018-03-26T20:26:38.697Z,8.60
2018-03-26T20:31:29.577Z,6.90
2018-03-26T20:36:20.534Z,6.70
2018-03-26T20:41:11.485Z,6.70
2018-03-26T20:46:02.398Z,6.73
2018-03-26T20:50:54.038Z,6.27
2018-03-26T20:55:44.928Z,7.27
2018-03-26T21:00:35.844Z,6.67
2018-03-26T21:05:27.480Z,7.63
2018-03-26T21:10:19.126Z,6.00
2018-03-26T21:15:10.778Z,5.60
2018-03-26T21:20:01.675Z,6.37
2018-03-26T21:24:52.580Z,6.63
2018-03-26T21:29:43.526Z,6.07
2018-03-26T21:34:34.474Z,6.03
2018-03-26T21:39:25.385Z,6.07
2018-03-26T21:44:16.267Z,6.53
2018-03-26T21:49:07.162Z,6.90
2018-03-26T21:53:58.792Z,6.37
2018-03-26T21:58:49.677Z,6.03
2018-03-26T22:03:40.590Z,7.10
2018-03-26T22:08:31.530Z,6.57
2018-03-26T22:13:22.438Z,6.80
2018-03-26T22:18:14.199Z,5.87
2018-03-26T22:23:05.836Z,6.50
2018-03-26T22:27:56.756Z,6.60
2018-03-26T22:32:47.869Z,6.60
2018-03-26T22:37:38.765Z,6.37
2018-03-26T22:42:30.501Z,6.60
2018-03-26T22:47:22.168Z,7.27
2018-03-26T22:52:13.065Z,5.87
2018-03-26T22:57:03.957Z,6.20
2018-03-26T23:01:58.366Z,7.20
2018-03-26T23:06:49.276Z,5.80
2018-03-26T23:11:40.914Z,6.07
2018-03-26T23:16:31.801Z,6.53
2018-03-26T23:21:22.705Z,5.13
2018-03-26T23:26:13.595Z,5.07
2018-03-26T23:31:04.495Z,5.93
2018-03-26T23:35:55.432Z,5.40
2018-03-26T23:40:46.327Z,5.70
2018-03-26T23:45:37.216Z,6.17
2018-03-26T23:50:28.657Z,6.60
2018-03-26T23:55:19.571Z,6.10
